Time;durP1;ratioP1;P1;durP2;ratioP2;P2;SDS_P1;SDS_P2;PMS_P1;PMS_P2;Temp;Humidity;BMP_temperature;BMP_pressure;BME280_temperature;BME280_humidity;BME280_pressure;Samples;Min_cycle;Max_cycle;Signal;HPM_P1;HPM_P2
2023/11/27 00:02:18;;;;;;;;;;;14.70;91.10;;;;;;5014813;28;19916;-69
2023/11/27 00:04:43;;;;;;;;;;;14.80;91.30;;;;;;5014710;28;20008;-69
2023/11/27 00:07:09;;;;;;;;;;;14.80;91.30;;;;;;5014765;28;19913;-69
2023/11/27 00:09:35;;;;;;;;;;;14.70;91.30;;;;;;5014725;28;19961;-69
2023/11/27 00:12:02;;;;;;;;;;;14.80;91.20;;;;;;5014839;28;19914;-69
2023/11/27 00:14:28;;;;;;;;;;;14.70;91.30;;;;;;5014777;28;20296;-69
2023/11/27 00:16:54;;;;;;;;;;;14.70;91.40;;;;;;5014570;28;19909;-69
2023/11/27 00:19:19;;;;;;;;;;;14.80;91.30;;;;;;5014688;28;20277;-69
2023/11/27 00:21:45;;;;;;;;;;;14.70;91.10;;;;;;5014522;28;19913;-70
2023/11/27 00:24:11;;;;;;;;;;;14.70;91.40;;;;;;5014719;28;20357;-69
2023/11/27 00:26:36;;;;;;;;;;;14.80;91.30;;;;;;5014427;28;19956;-69
2023/11/27 00:29:02;;;;;;;;;;;14.70;91.00;;;;;;5014824;28;20307;-69
2023/11/27 00:31:27;;;;;;;;;;;14.70;91.30;;;;;;5014303;28;19910;-69
2023/11/27 00:33:53;;;;;;;;;;;14.70;91.40;;;;;;5014330;28;19921;-69
2023/11/27 00:36:18;;;;;;;;;;;14.70;91.40;;;;;;5014127;28;19917;-69
2023/11/27 00:38:44;;;;;;;;;;;14.70;91.30;;;;;;4996726;28;20008;-69
2023/11/27 00:41:14;;;;;;;;;;;14.70;91.30;;;;;;5014282;28;19920;-69
2023/11/27 00:43:55;;;;;;;;;;;14.70;91.20;;;;;;5012584;28;20299;-69
2023/11/27 00:46:20;;;;;;;;;;;14.70;91.30;;;;;;5014272;28;19917;-69
2023/11/27 00:48:47;;;;;;;;;;;14.70;91.20;;;;;;5014184;28;19925;-69
2023/11/27 00:51:13;;;;;;;;;;;14.70;91.20;;;;;;5012975;28;20363;-69
2023/11/27 00:53:39;;;;;;;;;;;14.70;91.20;;;;;;5013920;28;20511;-69
2023/11/27 00:56:05;;;;;;;;;;;14.20;90.60;;;;;;5014274;28;19925;-78
2023/11/27 00:58:31;;;;;;;;;;;14.70;90.70;;;;;;5014112;28;19989;-78
2023/11/27 01:00:57;;;;;;;;;;;14.50;91.20;;;;;;5013789;28;19948;-78
2023/11/27 01:03:23;;;;;;;;;;;14.60;90.90;;;;;;5013478;28;19909;-78
2023/11/27 01:05:49;;;;;;;;;;;14.70;91.10;;;;;;5013766;28;19914;-78
2023/11/27 01:08:15;;;;;;;;;;;14.70;91.20;;;;;;5013900;28;19910;-79
2023/11/27 01:10:44;;;;;;;;;;;14.70;91.20;;;;;;5013704;28;20510;-79
2023/11/27 01:13:10;;;;;;;;;;;14.60;90.90;;;;;;5013546;28;19913;-78
2023/11/27 01:15:35;;;;;;;;;;;14.60;91.10;;;;;;5013594;28;19939;-78
2023/11/27 01:18:01;;;;;;;;;;;14.60;91.20;;;;;;5013750;28;20368;-78
2023/11/27 01:20:26;;;;;;;;;;;14.60;91.10;;;;;;5013709;28;19948;-78
2023/11/27 01:22:52;;;;;;;;;;;14.60;91.10;;;;;;5013511;28;19909;-78
2023/11/27 01:25:17;;;;;;;;;;;14.60;91.10;;;;;;5013869;28;19909;-78
2023/11/27 01:27:44;;;;;;;;;;;14.60;91.10;;;;;;5013393;28;19909;-78
2023/11/27 01:30:10;;;;;;;;;;;14.50;91.10;;;;;;5013212;28;19925;-78
2023/11/27 01:32:36;;;;;;;;;;;14.50;90.60;;;;;;5013238;28;19910;-78
2023/11/27 01:35:02;;;;;;;;;;;14.60;91.30;;;;;;5013584;28;19916;-78
2023/11/27 01:37:27;;;;;;;;;;;14.50;91.10;;;;;;5013432;28;19909;-79
2023/11/27 01:39:53;;;;;;;;;;;14.60;91.40;;;;;;5013491;28;19909;-79
2023/11/27 01:42:19;;;;;;;;;;;14.60;91.30;;;;;;5013330;28;20280;-79
2023/11/27 01:44:45;;;;;;;;;;;14.50;91.40;;;;;;5013393;28;19968;-79
2023/11/27 01:47:11;;;;;;;;;;;14.60;91.20;;;;;;5013239;28;19971;-78
2023/11/27 01:49:41;;;;;;;;;;;14.60;91.40;;;;;;5013208;28;19922;-80
2023/11/27 01:52:08;;;;;;;;;;;14.60;90.90;;;;;;5012901;28;19993;-80
2023/11/27 01:54:36;;;;;;;;;;;14.50;91.20;;;;;;5013729;28;19910;-80
2023/11/27 01:57:03;;;;;;;;;;;14.60;91.50;;;;;;5012964;28;19917;-79
2023/11/27 01:59:29;;;;;;;;;;;14.50;91.10;;;;;;5013186;28;20352;-80
2023/11/27 02:01:57;;;;;;;;;;;14.50;91.20;;;;;;5012647;28;19944;-79
2023/11/27 02:04:23;;;;;;;;;;;14.60;91.40;;;;;;5012614;28;19921;-80
2023/11/27 02:06:50;;;;;;;;;;;14.50;91.40;;;;;;5012804;28;19916;-79
2023/11/27 02:09:17;;;;;;;;;;;14.50;91.30;;;;;;5012938;28;19925;-79
2023/11/27 02:11:44;;;;;;;;;;;14.50;91.40;;;;;;5012586;28;19999;-80
2023/11/27 02:14:10;;;;;;;;;;;14.50;91.40;;;;;;5012916;28;19979;-80
2023/11/27 02:16:36;;;;;;;;;;;14.50;91.50;;;;;;5012849;28;19910;-79
2023/11/27 02:19:03;;;;;;;;;;;14.50;91.30;;;;;;5013012;28;19909;-79
2023/11/27 02:21:29;;;;;;;;;;;14.50;91.10;;;;;;5013320;28;19935;-80
2023/11/27 02:23:55;;;;;;;;;;;14.50;91.30;;;;;;5012542;28;20323;-80
2023/11/27 02:26:21;;;;;;;;;;;14.50;91.30;;;;;;5012584;28;19932;-80
2023/11/27 02:28:47;;;;;;;;;;;14.50;91.40;;;;;;5012505;28;20395;-79
2023/11/27 02:31:13;;;;;;;;;;;14.50;91.40;;;;;;5012466;28;19996;-80
2023/11/27 02:33:39;;;;;;;;;;;14.50;91.30;;;;;;5012527;28;19920;-80
2023/11/27 02:36:05;;;;;;;;;;;14.50;91.20;;;;;;5012852;28;19937;-80
2023/11/27 02:38:31;;;;;;;;;;;14.40;91.00;;;;;;5012873;28;20199;-80
2023/11/27 02:40:59;;;;;;;;;;;14.50;91.40;;;;;;5012470;28;20503;-80
2023/11/27 02:43:25;;;;;;;;;;;14.50;91.30;;;;;;5012721;28;19913;-80
2023/11/27 02:45:51;;;;;;;;;;;14.40;91.20;;;;;;5012382;28;20292;-79
2023/11/27 02:48:17;;;;;;;;;;;14.40;90.90;;;;;;5012325;28;19917;-79
2023/11/27 02:50:43;;;;;;;;;;;14.40;90.80;;;;;;5013045;28;19917;-79
2023/11/27 02:53:10;;;;;;;;;;;14.50;91.40;;;;;;5012613;28;20249;-79
2023/11/27 02:55:36;;;;;;;;;;;14.50;91.20;;;;;;5012544;28;19909;-79
2023/11/27 02:58:02;;;;;;;;;;;14.40;91.20;;;;;;5012628;28;19972;-80
2023/11/27 03:00:28;;;;;;;;;;;14.40;91.20;;;;;;5012330;28;19936;-79
2023/11/27 03:02:54;;;;;;;;;;;14.40;91.00;;;;;;5012539;28;19956;-80
2023/11/27 03:05:19;;;;;;;;;;;14.40;91.30;;;;;;5012229;28;19926;-80
2023/11/27 03:07:45;;;;;;;;;;;14.30;91.20;;;;;;5012498;28;19937;-80
2023/11/27 03:10:12;;;;;;;;;;;14.50;91.20;;;;;;5012133;28;19917;-80
2023/11/27 03:12:38;;;;;;;;;;;14.30;91.30;;;;;;5012356;28;19916;-80
2023/11/27 03:15:05;;;;;;;;;;;14.40;91.20;;;;;;5013907;28;20315;-80
2023/11/27 03:17:31;;;;;;;;;;;14.40;90.70;;;;;;5015908;28;19910;-80
2023/11/27 03:19:57;;;;;;;;;;;14.30;91.20;;;;;;5016391;28;19909;-79
2023/11/27 03:22:24;;;;;;;;;;;14.40;91.20;;;;;;5015888;28;19909;-80
2023/11/27 03:24:50;;;;;;;;;;;14.30;91.10;;;;;;5015557;28;19913;-79
2023/11/27 03:27:15;;;;;;;;;;;14.30;91.20;;;;;;5015672;28;19916;-79
2023/11/27 03:29:41;;;;;;;;;;;14.30;91.30;;;;;;5015854;28;20004;-80
2023/11/27 03:32:07;;;;;;;;;;;14.30;91.20;;;;;;5015588;28;20365;-80
2023/11/27 03:34:33;;;;;;;;;;;14.30;91.20;;;;;;5015746;28;19910;-80
2023/11/27 03:36:59;;;;;;;;;;;14.30;91.10;;;;;;5015771;28;19977;-80
2023/11/27 03:39:25;;;;;;;;;;;14.40;91.10;;;;;;5015405;28;19910;-80
2023/11/27 03:41:51;;;;;;;;;;;14.20;91.00;;;;;;5015567;28;19910;-80
2023/11/27 03:44:17;;;;;;;;;;;14.30;91.30;;;;;;5015424;28;20331;-79
2023/11/27 03:46:42;;;;;;;;;;;14.30;91.20;;;;;;5015704;28;20332;-79
2023/11/27 03:49:08;;;;;;;;;;;14.50;91.30;;;;;;5015181;28;19924;-79
2023/11/27 03:51:33;;;;;;;;;;;14.20;91.00;;;;;;5015181;28;20024;-79
2023/11/27 03:53:59;;;;;;;;;;;14.20;91.10;;;;;;5015154;28;20484;-79
2023/11/27 03:56:24;;;;;;;;;;;14.20;91.30;;;;;;5015496;28;19909;-80
2023/11/27 03:58:50;;;;;;;;;;;14.20;91.30;;;;;;5015070;28;19963;-79
2023/11/27 04:01:15;;;;;;;;;;;14.30;91.20;;;;;;5015033;28;20296;-79
2023/11/27 04:03:41;;;;;;;;;;;14.20;91.00;;;;;;5014724;28;19914;-79
2023/11/27 04:06:09;;;;;;;;;;;14.30;91.10;;;;;;5014901;28;19909;-79
2023/11/27 04:08:41;;;;;;;;;;;14.20;87.90;;;;;;5014845;28;19920;-79
2023/11/27 04:11:09;;;;;;;;;;;14.20;87.80;;;;;;5015108;28;20492;-80
2023/11/27 04:13:35;;;;;;;;;;;14.30;91.10;;;;;;5015051;28;20386;-80
2023/11/27 04:16:00;;;;;;;;;;;14.30;91.10;;;;;;5015446;28;19910;-79
2023/11/27 04:18:26;;;;;;;;;;;14.10;90.90;;;;;;5015212;28;19914;-79
2023/11/27 04:20:51;;;;;;;;;;;14.20;91.20;;;;;;5014851;28;19909;-79
2023/11/27 04:23:17;;;;;;;;;;;14.20;91.50;;;;;;5014615;28;19910;-80
2023/11/27 04:25:42;;;;;;;;;;;14.20;91.10;;;;;;5014717;28;19964;-79
2023/11/27 04:28:08;;;;;;;;;;;14.20;91.20;;;;;;5014591;28;19909;-79
2023/11/27 04:30:33;;;;;;;;;;;14.20;91.20;;;;;;5014772;28;19924;-80
2023/11/27 04:32:59;;;;;;;;;;;14.10;91.10;;;;;;5014388;28;19980;-80
2023/11/27 04:35:24;;;;;;;;;;;14.10;91.10;;;;;;5014484;28;20017;-80
2023/11/27 04:37:50;;;;;;;;;;;14.10;90.90;;;;;;4996785;28;19936;-80
2023/11/27 04:40:15;;;;;;;;;;;14.10;91.30;;;;;;5014309;28;19945;-80
2023/11/27 04:42:41;;;;;;;;;;;14.10;91.30;;;;;;5014357;28;19910;-80
2023/11/27 04:45:07;;;;;;;;;;;14.10;91.30;;;;;;5014651;28;20038;-80
2023/11/27 04:47:33;;;;;;;;;;;14.40;90.90;;;;;;5014744;28;19979;-80
2023/11/27 04:49:58;;;;;;;;;;;14.20;91.10;;;;;;5014091;28;19918;-79
2023/11/27 04:52:24;;;;;;;;;;;14.10;91.10;;;;;;5013904;28;19910;-79
2023/11/27 04:54:49;;;;;;;;;;;14.10;91.20;;;;;;5014370;28;19913;-80
2023/11/27 04:57:15;;;;;;;;;;;14.20;91.20;;;;;;5014076;28;19917;-79
2023/11/27 04:59:40;;;;;;;;;;;13.90;91.00;;;;;;5013972;28;19910;-79
2023/11/27 05:08:13;;;;;;;;;;;14.20;87.20;;;;;;5033699;28;19955;-70
2023/11/27 05:10:39;;;;;;;;;;;14.30;91.20;;;;;;5033277;28;19964;-70
2023/11/27 05:13:07;;;;;;;;;;;14.20;91.10;;;;;;5033542;28;19948;-70
